Aviation Digital Data Service (ADDS)

Output produced by METARs form (1312 UTC 21 May 2018)
found at http://aviationweather.gov/adds/metars/
 
KCLL 211253Z 06005KT 10SM OVC012 21/20 A3001 RMK AO2 SLP160 T02060200